Time;durP1;ratioP1;P1;durP2;ratioP2;P2;SDS_P1;SDS_P2;PMS_P1;PMS_P2;Temp;Humidity;BMP_temperature;BMP_pressure;BME280_temperature;BME280_humidity;BME280_pressure;Samples;Min_cycle;Max_cycle;Signal;HPM_P1;HPM_P2
2022/04/07 00:01:14;;;;;;;;;;;9.10;1.00;;;;;;5034114;28;20298;-79
2022/04/07 00:03:40;;;;;;;;;;;9.20;1.00;;;;;;5037404;28;19913;-80
2022/04/07 00:06:09;;;;;;;;;;;9.20;1.00;;;;;;5036236;28;20390;-79
2022/04/07 00:08:38;;;;;;;;;;;9.30;1.00;;;;;;5037242;28;20000;-80
2022/04/07 00:11:04;;;;;;;;;;;9.40;1.00;;;;;;5035068;28;19924;-80
2022/04/07 00:13:29;;;;;;;;;;;9.40;1.00;;;;;;5037341;28;19913;-80
2022/04/07 00:15:56;;;;;;;;;;;9.40;1.00;;;;;;5038142;28;19924;-79
2022/04/07 00:18:22;;;;;;;;;;;9.50;1.00;;;;;;5040707;28;20365;-79
2022/04/07 00:20:47;;;;;;;;;;;9.50;1.00;;;;;;5036285;28;19920;-79
2022/04/07 00:23:13;;;;;;;;;;;9.60;1.00;;;;;;5034021;28;19920;-79
2022/04/07 00:25:38;;;;;;;;;;;9.70;1.00;;;;;;5034013;28;19913;-79
2022/04/07 00:28:04;;;;;;;;;;;9.70;1.00;;;;;;5030683;28;20445;-79
2022/04/07 00:30:30;;;;;;;;;;;9.70;99.90;;;;;;5031273;28;19921;-78
2022/04/07 00:32:55;;;;;;;;;;;9.70;99.90;;;;;;5034753;28;20262;-79
2022/04/07 00:35:24;;;;;;;;;;;9.60;99.90;;;;;;5034977;28;19947;-80
2022/04/07 00:37:51;;;;;;;;;;;9.60;99.90;;;;;;5035325;28;19913;-79
2022/04/07 00:40:18;;;;;;;;;;;9.70;99.90;;;;;;5034887;28;19925;-79
2022/04/07 00:42:47;;;;;;;;;;;9.70;99.90;;;;;;5031055;28;19963;-79
2022/04/07 00:45:13;;;;;;;;;;;9.70;99.90;;;;;;5037370;28;20397;-78
2022/04/07 00:47:38;;;;;;;;;;;9.70;99.90;;;;;;5039570;28;19935;-79
2022/04/07 00:50:04;;;;;;;;;;;9.70;99.90;;;;;;5040197;28;19960;-80
2022/04/07 00:52:31;;;;;;;;;;;9.70;99.90;;;;;;5041037;28;19988;-80
2022/04/07 00:54:57;;;;;;;;;;;9.80;99.90;;;;;;5042718;28;19918;-79
2022/04/07 00:57:23;;;;;;;;;;;9.80;99.90;;;;;;5044094;28;19923;-80
2022/04/07 00:59:49;;;;;;;;;;;9.70;99.90;;;;;;5040902;28;19913;-80
2022/04/07 01:02:14;;;;;;;;;;;9.70;99.90;;;;;;5040587;28;19917;-80
2022/04/07 01:04:40;;;;;;;;;;;9.70;99.90;;;;;;5045275;28;19913;-78
2022/04/07 01:07:07;;;;;;;;;;;9.70;99.90;;;;;;5043648;28;19921;-81
2022/04/07 01:09:33;;;;;;;;;;;9.70;99.90;;;;;;5044010;28;19914;-79
2022/04/07 01:11:58;;;;;;;;;;;9.70;99.90;;;;;;5042389;28;19917;-80
2022/04/07 01:14:23;;;;;;;;;;;9.60;99.90;;;;;;5047717;28;20005;-80
2022/04/07 01:16:49;;;;;;;;;;;9.60;1.00;;;;;;5039926;28;19972;-81
2022/04/07 01:19:14;;;;;;;;;;;9.70;1.00;;;;;;5043723;28;19914;-80
2022/04/07 01:21:41;;;;;;;;;;;9.70;1.00;;;;;;5045230;28;19961;-80
2022/04/07 01:24:07;;;;;;;;;;;9.70;99.90;;;;;;5037434;28;19921;-79
2022/04/07 01:26:34;;;;;;;;;;;9.80;99.90;;;;;;5040057;28;19914;-80
2022/04/07 01:29:00;;;;;;;;;;;9.80;99.90;;;;;;5043813;28;19943;-80
2022/04/07 01:31:26;;;;;;;;;;;9.80;99.90;;;;;;5048165;28;19917;-81
2022/04/07 01:33:52;;;;;;;;;;;9.90;99.90;;;;;;5039747;28;19971;-81
2022/04/07 01:36:17;;;;;;;;;;;9.90;99.90;;;;;;5041397;28;19918;-80
2022/04/07 01:38:44;;;;;;;;;;;9.90;99.90;;;;;;5040662;28;19940;-79
2022/04/07 01:41:09;;;;;;;;;;;9.90;99.90;;;;;;5038513;28;19924;-80
2022/04/07 01:43:35;;;;;;;;;;;10.00;99.90;;;;;;5039159;28;19996;-78
2022/04/07 01:46:01;;;;;;;;;;;10.00;99.90;;;;;;5033315;28;20004;-80
2022/04/07 01:48:28;;;;;;;;;;;10.00;99.90;;;;;;5044715;28;19948;-80
2022/04/07 01:50:53;;;;;;;;;;;10.00;99.90;;;;;;5040521;28;19917;-80
2022/04/07 01:53:19;;;;;;;;;;;10.00;99.90;;;;;;5039560;28;20450;-80
2022/04/07 01:55:45;;;;;;;;;;;10.00;99.90;;;;;;5040531;28;20403;-80
2022/04/07 01:58:11;;;;;;;;;;;10.00;99.90;;;;;;5036759;28;20003;-80
2022/04/07 02:00:38;;;;;;;;;;;10.00;99.90;;;;;;5037920;28;19924;-80
2022/04/07 02:03:05;;;;;;;;;;;10.00;99.90;;;;;;5038137;28;19913;-80
2022/04/07 02:05:31;;;;;;;;;;;10.00;99.90;;;;;;5042615;28;19917;-80
2022/04/07 02:07:56;;;;;;;;;;;10.00;1.00;;;;;;5038421;28;20535;-80
2022/04/07 02:10:23;;;;;;;;;;;10.00;99.90;;;;;;5038836;28;19943;-81
2022/04/07 02:12:49;;;;;;;;;;;10.00;99.90;;;;;;5035198;28;19924;-80
2022/04/07 02:15:14;;;;;;;;;;;10.00;99.90;;;;;;5037230;28;19917;-80
2022/04/07 02:17:40;;;;;;;;;;;10.00;99.90;;;;;;5035566;28;19913;-80
2022/04/07 02:20:07;;;;;;;;;;;10.00;99.90;;;;;;5038628;28;20329;-78
2022/04/07 02:22:32;;;;;;;;;;;10.00;99.90;;;;;;5034438;28;19914;-80
2022/04/07 02:24:58;;;;;;;;;;;10.00;99.90;;;;;;5036790;28;19959;-81
2022/04/07 02:27:24;;;;;;;;;;;10.10;99.90;;;;;;5036836;28;20012;-81
2022/04/07 02:29:50;;;;;;;;;;;10.10;99.90;;;;;;5038120;28;19956;-80
2022/04/07 02:32:15;;;;;;;;;;;10.00;99.90;;;;;;5037543;28;19917;-81
2022/04/07 02:34:41;;;;;;;;;;;10.10;99.90;;;;;;5032259;28;19920;-81
2022/04/07 02:37:07;;;;;;;;;;;10.10;99.90;;;;;;5036035;28;19988;-81
2022/04/07 02:39:33;;;;;;;;;;;10.10;99.90;;;;;;5037496;28;19920;-81
2022/04/07 02:41:58;;;;;;;;;;;10.00;99.90;;;;;;5036943;28;19940;-81
2022/04/07 02:44:24;;;;;;;;;;;10.10;99.90;;;;;;5037438;28;20369;-81
2022/04/07 02:46:49;;;;;;;;;;;10.10;99.90;;;;;;5038849;28;19913;-81
2022/04/07 02:49:15;;;;;;;;;;;10.10;99.90;;;;;;5034211;28;19921;-79
2022/04/07 02:51:40;;;;;;;;;;;10.10;99.90;;;;;;5038934;28;19936;-80
2022/04/07 02:54:06;;;;;;;;;;;10.10;99.90;;;;;;5036296;28;19928;-81
2022/04/07 02:56:31;;;;;;;;;;;10.20;94.20;;;;;;5038931;28;20075;-81
2022/04/07 02:58:57;;;;;;;;;;;10.20;7.80;;;;;;5034026;28;19992;-81
2022/04/07 03:01:23;;;;;;;;;;;10.20;1.00;;;;;;5035001;28;19920;-80
2022/04/07 03:03:49;;;;;;;;;;;10.20;1.00;;;;;;5038352;28;19913;-82
2022/04/07 03:06:14;;;;;;;;;;;10.20;1.00;;;;;;5036155;28;20364;-81
2022/04/07 03:08:40;;;;;;;;;;;10.20;1.00;;;;;;5035080;28;19913;-82
2022/04/07 03:11:07;;;;;;;;;;;10.30;1.00;;;;;;5034328;28;19913;-81
2022/04/07 03:13:32;;;;;;;;;;;10.30;99.90;;;;;;5035616;28;19972;-81
2022/04/07 03:15:58;;;;;;;;;;;10.30;99.90;;;;;;5038286;28;19937;-81
2022/04/07 03:18:23;;;;;;;;;;;10.30;99.90;;;;;;5033223;28;19960;-81
2022/04/07 03:20:49;;;;;;;;;;;10.20;99.90;;;;;;5036008;28;20386;-81
2022/04/07 03:23:15;;;;;;;;;;;10.30;99.90;;;;;;5035052;28;19913;-81
2022/04/07 03:25:40;;;;;;;;;;;10.30;99.90;;;;;;5035905;28;19944;-81
2022/04/07 03:28:06;;;;;;;;;;;10.30;99.90;;;;;;5035433;28;19917;-81
2022/04/07 03:30:31;;;;;;;;;;;10.30;99.90;;;;;;5037591;28;19920;-81
2022/04/07 03:32:57;;;;;;;;;;;10.30;99.90;;;;;;5034959;28;19909;-81
2022/04/07 03:35:22;;;;;;;;;;;10.30;99.90;;;;;;5033447;28;19918;-81
2022/04/07 03:37:48;;;;;;;;;;;10.30;99.90;;;;;;5036674;28;19909;-81
2022/04/07 03:40:13;;;;;;;;;;;10.30;99.90;;;;;;5036295;28;21853;-80
2022/04/07 03:42:39;;;;;;;;;;;10.30;99.90;;;;;;5037111;28;19910;-81
2022/04/07 03:45:05;;;;;;;;;;;10.20;1.00;;;;;;5037542;28;19992;-81
2022/04/07 03:47:31;;;;;;;;;;;10.20;1.00;;;;;;5042026;28;19917;-81
2022/04/07 03:49:57;;;;;;;;;;;10.20;1.00;;;;;;5043902;28;19980;-81
2022/04/07 03:52:22;;;;;;;;;;;10.20;1.00;;;;;;5034401;28;19970;-80
2022/04/07 03:54:48;;;;;;;;;;;10.20;1.00;;;;;;5031907;28;19910;-81
2022/04/07 03:57:13;;;;;;;;;;;10.20;1.00;;;;;;5032979;28;19920;-81
2022/04/07 03:59:42;;;;;;;;;;;10.20;1.00;;;;;;5036427;28;19913;-81
2022/04/07 04:02:08;;;;;;;;;;;10.20;1.00;;;;;;5034760;28;20004;-79
2022/04/07 04:04:33;;;;;;;;;;;10.20;1.00;;;;;;5035133;28;19967;-80
2022/04/07 04:06:59;;;;;;;;;;;10.30;68.60;;;;;;5037703;28;19910;-81
2022/04/07 04:09:25;;;;;;;;;;;10.30;99.90;;;;;;5035803;28;19913;-79
2022/04/07 04:11:50;;;;;;;;;;;10.30;99.90;;;;;;5037214;28;19921;-80
2022/04/07 04:14:15;;;;;;;;;;;10.20;99.90;;;;;;5032735;28;19922;-80
2022/04/07 04:16:41;;;;;;;;;;;10.20;1.00;;;;;;5028654;28;19917;-80
2022/04/07 04:19:07;;;;;;;;;;;10.20;1.00;;;;;;5034236;28;20500;-81
2022/04/07 04:21:32;;;;;;;;;;;10.10;1.00;;;;;;5034768;28;19948;-80
2022/04/07 04:23:58;;;;;;;;;;;10.10;1.00;;;;;;5039940;28;20004;-81
2022/04/07 04:26:23;;;;;;;;;;;10.10;1.00;;;;;;5039142;28;19918;-80
2022/04/07 04:28:49;;;;;;;;;;;10.10;1.00;;;;;;5040967;28;19913;-80
2022/04/07 04:31:14;;;;;;;;;;;10.10;1.00;;;;;;5040140;28;19917;-80
2022/04/07 04:33:39;;;;;;;;;;;10.10;1.00;;;;;;5037967;28;20035;-79
2022/04/07 04:36:05;;;;;;;;;;;10.10;1.00;;;;;;5037394;28;19921;-80
2022/04/07 04:38:30;;;;;;;;;;;10.10;1.00;;;;;;5025849;28;20366;-80
2022/04/07 04:40:56;;;;;;;;;;;10.10;1.00;;;;;;5037227;28;19909;-80
2022/04/07 04:43:21;;;;;;;;;;;10.10;1.00;;;;;;5034502;28;20287;-81
2022/04/07 04:45:47;;;;;;;;;;;10.10;1.00;;;;;;5039368;28;19920;-80
2022/04/07 04:48:12;;;;;;;;;;;10.10;1.00;;;;;;5035396;28;20470;-80
2022/04/07 04:50:38;;;;;;;;;;;10.10;1.00;;;;;;5033985;28;19953;-79
2022/04/07 04:53:03;;;;;;;;;;;10.00;1.00;;;;;;5035882;28;19913;-80
2022/04/07 04:55:29;;;;;;;;;;;10.00;1.00;;;;;;5037177;28;20548;-80
2022/04/07 04:57:54;;;;;;;;;;;10.00;1.00;;;;;;5036643;28;20385;-80
2022/04/07 05:00:19;;;;;;;;;;;10.00;1.00;;;;;;5034784;28;19921;-78
2022/04/07 05:02:45;;;;;;;;;;;9.90;1.00;;;;;;5042094;28;19986;-79
2022/04/07 05:05:11;;;;;;;;;;;9.90;1.00;;;;;;5040254;28;19913;-79
2022/04/07 05:07:37;;;;;;;;;;;9.90;1.00;;;;;;5037504;28;19951;-78
2022/04/07 05:10:03;;;;;;;;;;;9.90;1.00;;;;;;5038711;28;19913;-79
2022/04/07 05:12:29;;;;;;;;;;;9.90;1.00;;;;;;5036463;28;19917;-80
2022/04/07 05:14:54;;;;;;;;;;;9.90;1.00;;;;;;5038324;28;20392;-79
2022/04/07 05:17:19;;;;;;;;;;;9.90;1.00;;;;;;5038330;28;20306;-79
2022/04/07 05:19:45;;;;;;;;;;;9.90;1.00;;;;;;5039078;28;19917;-80
2022/04/07 05:22:11;;;;;;;;;;;9.90;1.00;;;;;;5039555;28;20032;-78
2022/04/07 05:24:36;;;;;;;;;;;9.90;1.00;;;;;;5038214;28;19917;-79
2022/04/07 05:27:02;;;;;;;;;;;9.90;1.00;;;;;;5042018;28;19913;-80
2022/04/07 05:29:28;;;;;;;;;;;10.00;1.00;;;;;;5041624;28;20073;-79
2022/04/07 05:31:53;;;;;;;;;;;10.00;1.00;;;;;;5042936;28;19945;-80
2022/04/07 05:34:19;;;;;;;;;;;10.00;1.00;;;;;;5040229;28;19912;-81
2022/04/07 05:36:44;;;;;;;;;;;10.00;1.00;;;;;;5044256;28;20023;-82
2022/04/07 05:39:10;;;;;;;;;;;10.00;1.00;;;;;;5046633;28;19913;-79
2022/04/07 05:41:35;;;;;;;;;;;10.10;1.00;;;;;;5044700;28;20332;-80
2022/04/07 05:44:01;;;;;;;;;;;10.20;1.00;;;;;;5044275;28;19913;-82
2022/04/07 05:46:26;;;;;;;;;;;10.20;1.00;;;;;;5044237;28;19920;-81
2022/04/07 05:48:52;;;;;;;;;;;10.20;1.00;;;;;;5043886;28;19913;-80
2022/04/07 05:51:17;;;;;;;;;;;10.20;1.00;;;;;;5042985;28;20008;-82
2022/04/07 05:53:42;;;;;;;;;;;10.10;1.00;;;;;;5044160;28;19920;-80
2022/04/07 05:56:08;;;;;;;;;;;10.10;1.00;;;;;;5045775;28;19997;-81
2022/04/07 05:58:33;;;;;;;;;;;10.00;1.00;;;;;;5058382;28;19921;-83
2022/04/07 06:00:59;;;;;;;;;;;10.00;1.00;;;;;;5044323;28;19913;-81
2022/04/07 06:03:24;;;;;;;;;;;9.90;1.00;;;;;;5052561;28;19988;-81
2022/04/07 06:05:52;;;;;;;;;;;9.90;1.00;;;;;;5053420;28;19920;-83
2022/04/07 06:08:21;;;;;;;;;;;9.90;1.00;;;;;;5036054;28;19919;-82
2022/04/07 06:10:47;;;;;;;;;;;9.90;1.00;;;;;;5046111;28;20284;-82
2022/04/07 06:13:14;;;;;;;;;;;9.80;1.00;;;;;;5039431;28;20003;-82
2022/04/07 06:15:40;;;;;;;;;;;9.80;1.00;;;;;;5061244;28;20003;-82
2022/04/07 06:18:05;;;;;;;;;;;9.80;1.00;;;;;;5047516;28;20368;-81
2022/04/07 06:20:31;;;;;;;;;;;9.80;1.00;;;;;;5051736;28;19919;-81
2022/04/07 06:22:57;;;;;;;;;;;9.90;1.00;;;;;;5034705;28;20016;-80
2022/04/07 06:25:23;;;;;;;;;;;10.00;1.00;;;;;;5033749;28;19922;-80
2022/04/07 06:27:49;;;;;;;;;;;10.20;1.00;;;;;;5042009;28;19977;-80
2022/04/07 06:30:15;;;;;;;;;;;10.30;1.00;;;;;;5040312;28;19913;-80
2022/04/07 06:32:41;;;;;;;;;;;10.30;1.00;;;;;;5040658;28;19916;-81
2022/04/07 06:35:07;;;;;;;;;;;10.30;1.00;;;;;;5039497;28;20373;-82
2022/04/07 06:37:53;;;;;;;;;;;10.30;1.00;;;;;;5037916;28;19983;-82
2022/04/07 06:40:28;;;;;;;;;;;10.30;1.00;;;;;;5037997;28;20345;-84
2022/04/07 06:42:54;;;;;;;;;;;10.50;1.00;;;;;;5042561;28;19913;-84
2022/04/07 06:45:20;;;;;;;;;;;10.60;1.00;;;;;;5059104;28;19909;-84
2022/04/07 06:47:45;;;;;;;;;;;10.60;1.00;;;;;;5046819;28;19920;-84
2022/04/07 06:50:12;;;;;;;;;;;10.60;1.00;;;;;;5044447;28;19952;-84
2022/04/07 06:52:38;;;;;;;;;;;10.70;1.00;;;;;;5038258;28;19913;-83
2022/04/07 06:55:04;;;;;;;;;;;10.80;1.00;;;;;;5044565;28;20366;-84
2022/04/07 06:57:29;;;;;;;;;;;11.00;99.90;;;;;;5040245;28;19921;-83
2022/04/07 06:59:55;;;;;;;;;;;11.20;99.90;;;;;;5037706;28;20304;-83
2022/04/07 07:02:21;;;;;;;;;;;11.30;99.90;;;;;;5038452;28;19920;-84
2022/04/07 07:04:46;;;;;;;;;;;11.20;99.90;;;;;;5039421;28;19940;-84
2022/04/07 07:07:13;;;;;;;;;;;11.30;99.90;;;;;;5038483;28;19920;-83
2022/04/07 07:09:38;;;;;;;;;;;11.40;99.90;;;;;;5029092;28;19920;-83
2022/04/07 07:12:04;;;;;;;;;;;11.40;99.90;;;;;;5033194;28;19944;-83
2022/04/07 07:14:29;;;;;;;;;;;11.40;99.90;;;;;;5034010;28;19913;-83
2022/04/07 07:16:55;;;;;;;;;;;11.40;99.90;;;;;;5045608;28;19921;-83
2022/04/07 07:19:26;;;;;;;;;;;11.50;99.90;;;;;;5050781;28;19923;-83
2022/04/07 07:21:52;;;;;;;;;;;11.50;99.90;;;;;;5049846;28;19913;-82
2022/04/07 07:24:17;;;;;;;;;;;11.50;99.90;;;;;;5038894;28;19919;-83
2022/04/07 07:26:43;;;;;;;;;;;11.30;99.90;;;;;;5026577;28;19921;-83
2022/04/07 07:29:08;;;;;;;;;;;11.30;99.90;;;;;;5036889;28;19929;-83
2022/04/07 07:31:35;;;;;;;;;;;11.50;99.90;;;;;;5034486;28;19948;-83
2022/04/07 07:34:00;;;;;;;;;;;11.50;99.90;;;;;;5037283;28;19920;-84
2022/04/07 07:36:26;;;;;;;;;;;11.30;1.00;;;;;;5036334;28;19925;-84
2022/04/07 07:38:51;;;;;;;;;;;11.30;1.00;;;;;;5034390;28;19944;-84
2022/04/07 07:41:17;;;;;;;;;;;11.30;1.00;;;;;;5035202;28;20000;-84
2022/04/07 07:43:42;;;;;;;;;;;11.40;1.00;;;;;;5038359;28;19913;-83
2022/04/07 07:46:08;;;;;;;;;;;11.50;99.90;;;;;;5036487;28;19913;-83
2022/04/07 07:48:33;;;;;;;;;;;11.70;99.90;;;;;;5036717;28;19927;-84
2022/04/07 07:50:59;;;;;;;;;;;11.80;99.90;;;;;;5039978;28;19980;-83
2022/04/07 07:53:25;;;;;;;;;;;11.60;99.90;;;;;;5037567;28;19917;-84
2022/04/07 07:55:50;;;;;;;;;;;11.40;1.00;;;;;;5036633;28;20369;-84
2022/04/07 07:58:16;;;;;;;;;;;11.20;1.00;;;;;;5038730;28;19913;-83
2022/04/07 08:00:41;;;;;;;;;;;11.00;1.00;;;;;;5036412;28;20003;-83
2022/04/07 08:03:07;;;;;;;;;;;10.90;1.00;;;;;;5039757;28;19953;-83
2022/04/07 08:05:33;;;;;;;;;;;11.00;1.00;;;;;;5037074;28;19917;-83
2022/04/07 08:07:58;;;;;;;;;;;11.20;1.00;;;;;;5036227;28;19928;-82
2022/04/07 08:10:24;;;;;;;;;;;11.40;1.00;;;;;;5040178;28;19917;-82
2022/04/07 08:12:49;;;;;;;;;;;11.50;1.00;;;;;;5037707;28;19917;-82
2022/04/07 08:15:15;;;;;;;;;;;11.70;1.00;;;;;;5030826;28;20353;-82
2022/04/07 08:17:40;;;;;;;;;;;11.90;1.00;;;;;;5032395;28;19913;-82
2022/04/07 08:20:09;;;;;;;;;;;12.00;1.00;;;;;;5033787;28;20023;-83
2022/04/07 08:22:35;;;;;;;;;;;12.50;99.90;;;;;;5032589;28;19921;-82
2022/04/07 08:25:00;;;;;;;;;;;12.60;99.90;;;;;;5029624;28;20298;-83
2022/04/07 08:27:26;;;;;;;;;;;12.50;99.90;;;;;;5031185;28;19920;-83
2022/04/07 08:29:52;;;;;;;;;;;12.50;99.90;;;;;;5029494;28;19913;-83
2022/04/07 08:32:18;;;;;;;;;;;12.50;99.90;;;;;;5030156;28;19941;-82
2022/04/07 08:34:43;;;;;;;;;;;12.50;99.90;;;;;;5038083;28;21608;-83
2022/04/07 08:37:08;;;;;;;;;;;12.30;1.00;;;;;;5040556;28;19949;-83
2022/04/07 08:39:34;;;;;;;;;;;12.20;1.00;;;;;;5034169;28;19921;-83
2022/04/07 08:42:01;;;;;;;;;;;12.30;1.00;;;;;;5038060;28;19935;-83
2022/04/07 08:44:31;;;;;;;;;;;12.30;1.00;;;;;;5035905;28;20293;-83
2022/04/07 08:46:57;;;;;;;;;;;12.70;1.00;;;;;;5035652;28;19928;-83
2022/04/07 08:49:24;;;;;;;;;;;13.10;99.90;;;;;;5036902;28;19913;-83
2022/04/07 08:51:53;;;;;;;;;;;13.10;99.90;;;;;;5038970;28;19917;-83
2022/04/07 08:54:19;;;;;;;;;;;13.10;99.90;;;;;;5034895;28;19920;-83
2022/04/07 08:56:45;;;;;;;;;;;13.20;99.90;;;;;;5034431;28;19928;-83
2022/04/07 08:59:11;;;;;;;;;;;13.30;99.90;;;;;;5040489;28;19913;-82
2022/04/07 09:01:36;;;;;;;;;;;14.00;99.90;;;;;;5037159;28;20026;-83
2022/04/07 09:04:02;;;;;;;;;;;14.30;99.90;;;;;;5035357;28;19913;-83
2022/04/07 09:06:29;;;;;;;;;;;14.70;99.90;;;;;;5032205;28;19913;-83
2022/04/07 09:08:54;;;;;;;;;;;14.40;1.00;;;;;;5037997;28;20052;-83
2022/04/07 09:11:21;;;;;;;;;;;14.00;99.90;;;;;;5040836;28;19956;-82
2022/04/07 09:13:46;;;;;;;;;;;13.90;1.00;;;;;;5039921;28;19976;-82
2022/04/07 09:16:13;;;;;;;;;;;13.90;1.00;;;;;;5045662;28;20045;-82
2022/04/07 09:18:39;;;;;;;;;;;13.70;75.00;;;;;;5039392;28;19913;-82
2022/04/07 09:21:06;;;;;;;;;;;13.30;99.90;;;;;;5042190;28;19995;-81
2022/04/07 09:23:42;;;;;;;;;;;13.20;1.00;;;;;;5043347;28;20280;-81
2022/04/07 09:26:11;;;;;;;;;;;13.20;1.00;;;;;;5047032;28;19913;-81
2022/04/07 09:28:36;;;;;;;;;;;13.30;1.00;;;;;;5039366;28;19939;-81
2022/04/07 09:31:02;;;;;;;;;;;13.00;1.00;;;;;;5038990;28;19913;-80
2022/04/07 09:33:28;;;;;;;;;;;12.70;1.00;;;;;;5039149;28;19909;-80
2022/04/07 09:36:01;;;;;;;;;;;12.40;1.00;;;;;;5034690;28;19921;-80
2022/04/07 09:38:27;;;;;;;;;;;12.20;1.00;;;;;;5034570;28;19909;-81
2022/04/07 09:40:53;;;;;;;;;;;12.20;1.00;;;;;;5037178;28;19921;-81
2022/04/07 09:43:20;;;;;;;;;;;12.10;1.00;;;;;;5043093;28;19967;-80
2022/04/07 09:45:45;;;;;;;;;;;12.10;1.00;;;;;;5034142;28;19981;-81
2022/04/07 09:48:17;;;;;;;;;;;12.10;1.00;;;;;;5047704;28;19921;-80
2022/04/07 09:51:00;;;;;;;;;;;12.00;1.00;;;;;;5044402;28;19925;-79
2022/04/07 09:53:26;;;;;;;;;;;12.00;1.00;;;;;;5041602;28;20435;-79
2022/04/07 09:55:52;;;;;;;;;;;12.00;1.00;;;;;;5045071;28;19917;-80
2022/04/07 09:58:17;;;;;;;;;;;12.10;1.00;;;;;;5043940;28;19908;-79
2022/04/07 10:00:43;;;;;;;;;;;12.10;1.00;;;;;;5045095;28;19925;-80
2022/04/07 10:03:09;;;;;;;;;;;12.10;1.00;;;;;;5045344;28;19931;-79
2022/04/07 10:05:35;;;;;;;;;;;12.00;1.00;;;;;;5043928;28;19921;-80
2022/04/07 10:08:02;;;;;;;;;;;12.10;1.00;;;;;;5043859;28;19924;-79
2022/04/07 10:10:27;;;;;;;;;;;12.10;1.00;;;;;;5040688;28;19915;-80
2022/04/07 10:12:55;;;;;;;;;;;12.20;1.00;;;;;;5044153;28;20534;-80
2022/04/07 10:15:21;;;;;;;;;;;12.10;1.00;;;;;;5043382;28;20341;-79
2022/04/07 10:17:47;;;;;;;;;;;12.30;1.00;;;;;;5044490;28;20297;-79
2022/04/07 10:20:16;;;;;;;;;;;12.50;1.00;;;;;;5045324;28;19928;-79
2022/04/07 10:22:52;;;;;;;;;;;12.70;1.00;;;;;;5041672;28;19975;-79
2022/04/07 10:25:18;;;;;;;;;;;13.10;99.90;;;;;;5041640;28;19919;-79
2022/04/07 10:27:45;;;;;;;;;;;13.60;99.90;;;;;;5043605;28;20008;-79
2022/04/07 10:30:11;;;;;;;;;;;14.20;1.00;;;;;;5046149;28;19967;-79
2022/04/07 10:32:38;;;;;;;;;;;15.00;1.00;;;;;;5041769;28;19913;-79
2022/04/07 10:35:03;;;;;;;;;;;15.60;1.00;;;;;;5045027;28;19913;-79
2022/04/07 10:37:45;;;;;;;;;;;15.70;1.00;;;;;;5043682;28;19919;-79
2022/04/07 10:40:29;;;;;;;;;;;15.20;1.00;;;;;;5037181;28;19913;-79
2022/04/07 10:43:07;;;;;;;;;;;14.90;99.90;;;;;;5036792;28;19948;-79
2022/04/07 10:45:33;;;;;;;;;;;15.30;99.90;;;;;;5031296;28;20404;-77
2022/04/07 10:48:17;;;;;;;;;;;16.60;99.90;;;;;;5040958;28;19920;-77
2022/04/07 10:50:53;;;;;;;;;;;17.90;99.90;;;;;;5038529;28;19940;-78
2022/04/07 10:53:24;;;;;;;;;;;19.60;99.90;;;;;;5039873;28;20347;-78
2022/04/07 10:55:53;;;;;;;;;;;21.30;99.90;;;;;;5036202;28;19917;-79
2022/04/07 10:58:19;;;;;;;;;;;22.70;99.90;;;;;;5034893;28;19913;-77
2022/04/07 11:00:44;;;;;;;;;;;22.20;99.90;;;;;;5030149;28;19928;-78
2022/04/07 11:03:17;;;;;;;;;;;21.60;99.90;;;;;;5035811;28;19913;-80
2022/04/07 11:05:53;;;;;;;;;;;22.90;99.90;;;;;;5035092;28;19921;-79
2022/04/07 11:08:21;;;;;;;;;;;23.90;99.90;;;;;;5040659;28;19912;-79
2022/04/07 11:10:48;;;;;;;;;;;24.40;99.90;;;;;;5037713;28;19976;-79
2022/04/07 11:13:14;;;;;;;;;;;24.40;99.90;;;;;;5043191;28;20328;-78
2022/04/07 11:15:42;;;;;;;;;;;24.40;99.90;;;;;;5033645;28;19987;-79
2022/04/07 11:18:18;;;;;;;;;;;24.70;99.90;;;;;;5040688;28;19936;-79
2022/04/07 11:21:23;;;;;;;;;;;23.60;99.90;;;;;;5033289;28;19917;-79
2022/04/07 11:23:48;;;;;;;;;;;23.60;99.90;;;;;;4999380;28;19917;-78
2022/04/07 11:26:26;;;;;;;;;;;23.70;99.90;;;;;;4998993;28;19920;-79
2022/04/07 11:28:58;;;;;;;;;;;23.80;99.90;;;;;;5015404;28;19917;-79
2022/04/07 11:31:38;;;;;;;;;;;23.20;99.90;;;;;;5035547;28;19913;-78
2022/04/07 11:34:23;;;;;;;;;;;23.10;99.90;;;;;;5039015;28;19913;-80
2022/04/07 11:36:49;;;;;;;;;;;23.40;99.90;;;;;;5036143;28;19928;-79
2022/04/07 11:39:15;;;;;;;;;;;22.80;99.90;;;;;;5039727;28;20027;-79
2022/04/07 11:41:43;;;;;;;;;;;22.80;99.90;;;;;;5036030;28;20028;-79
2022/04/07 11:44:09;;;;;;;;;;;22.40;99.90;;;;;;5034360;28;19921;-78
2022/04/07 11:46:35;;;;;;;;;;;22.10;99.90;;;;;;5039596;28;20019;-78
2022/04/07 11:49:01;;;;;;;;;;;21.00;99.90;;;;;;5031226;28;19955;-79
2022/04/07 11:51:27;;;;;;;;;;;20.80;99.90;;;;;;5032516;28;20402;-79
2022/04/07 11:53:53;;;;;;;;;;;21.10;99.90;;;;;;5031855;28;19914;-79
2022/04/07 11:56:20;;;;;;;;;;;20.20;99.90;;;;;;5040845;28;20063;-79
2022/04/07 11:58:53;;;;;;;;;;;19.70;99.90;;;;;;5039766;28;19940;-79
2022/04/07 12:01:18;;;;;;;;;;;20.00;99.90;;;;;;5039597;28;20317;-79
2022/04/07 12:03:43;;;;;;;;;;;21.00;99.90;;;;;;5036294;28;19986;-79
2022/04/07 12:06:09;;;;;;;;;;;20.40;99.90;;;;;;5044946;28;19920;-79
2022/04/07 12:08:35;;;;;;;;;;;21.10;99.90;;;;;;5039243;28;19913;-80
2022/04/07 12:11:01;;;;;;;;;;;20.60;99.90;;;;;;5042721;28;19916;-79
2022/04/07 12:13:27;;;;;;;;;;;19.70;99.90;;;;;;5041798;28;19936;-79
2022/04/07 12:15:52;;;;;;;;;;;19.50;99.90;;;;;;5032308;28;20593;-79
2022/04/07 12:18:28;;;;;;;;;;;19.20;99.90;;;;;;5036821;28;19920;-79
2022/04/07 12:20:58;;;;;;;;;;;18.50;99.90;;;;;;5039251;28;19913;-79
2022/04/07 12:23:25;;;;;;;;;;;19.00;99.90;;;;;;5039863;28;19912;-78
2022/04/07 12:25:56;;;;;;;;;;;20.00;99.90;;;;;;5033472;28;19913;-79
2022/04/07 12:28:21;;;;;;;;;;;20.10;99.90;;;;;;5036005;28;19912;-78
2022/04/07 12:30:53;;;;;;;;;;;19.30;99.90;;;;;;5029434;28;19925;-78
2022/04/07 12:33:40;;;;;;;;;;;18.60;99.90;;;;;;5032847;28;20280;-78
2022/04/07 12:36:09;;;;;;;;;;;18.50;99.90;;;;;;5034460;28;19921;-79
2022/04/07 12:38:35;;;;;;;;;;;18.20;99.90;;;;;;5038217;28;19917;-78
2022/04/07 12:41:16;;;;;;;;;;;17.90;99.90;;;;;;5040582;28;19917;-78
2022/04/07 12:43:50;;;;;;;;;;;17.70;99.90;;;;;;5039384;28;20331;-79
2022/04/07 12:46:19;;;;;;;;;;;16.80;99.90;;;;;;5039973;28;19912;-79
2022/04/07 12:49:00;;;;;;;;;;;16.50;99.90;;;;;;5035003;28;19916;-79
2022/04/07 12:51:26;;;;;;;;;;;16.20;99.90;;;;;;5044757;28;19913;-80
2022/04/07 12:54:03;;;;;;;;;;;16.00;99.90;;;;;;5032206;28;19928;-80
2022/04/07 12:56:29;;;;;;;;;;;15.90;99.90;;;;;;5032879;28;20369;-78
2022/04/07 12:59:02;;;;;;;;;;;15.70;99.90;;;;;;5043447;28;19917;-79
2022/04/07 13:01:29;;;;;;;;;;;15.50;99.90;;;;;;5031553;28;19948;-79
2022/04/07 13:03:56;;;;;;;;;;;15.40;99.90;;;;;;5053461;28;19929;-79
2022/04/07 13:06:23;;;;;;;;;;;15.30;99.90;;;;;;5032345;28;19913;-79
2022/04/07 13:08:48;;;;;;;;;;;15.30;99.90;;;;;;5037563;28;19925;-79
2022/04/07 13:11:30;;;;;;;;;;;15.90;99.90;;;;;;5038142;28;19958;-80
2022/04/07 13:13:56;;;;;;;;;;;15.90;99.90;;;;;;5041045;28;19913;-80
2022/04/07 13:16:21;;;;;;;;;;;15.70;99.90;;;;;;5045960;28;19924;-79
2022/04/07 13:18:47;;;;;;;;;;;15.50;99.90;;;;;;5040203;28;19920;-79
2022/04/07 13:21:12;;;;;;;;;;;15.50;99.90;;;;;;5048014;28;19921;-79
2022/04/07 13:23:38;;;;;;;;;;;15.60;99.90;;;;;;5041303;28;20345;-81
2022/04/07 13:26:05;;;;;;;;;;;15.50;99.90;;;;;;5035203;28;19920;-79
2022/04/07 13:28:31;;;;;;;;;;;15.10;99.90;;;;;;5035691;28;19913;-79
2022/04/07 13:30:57;;;;;;;;;;;15.00;99.90;;;;;;5041351;28;20345;-80
2022/04/07 13:33:23;;;;;;;;;;;15.10;99.90;;;;;;5046575;28;19976;-79
2022/04/07 13:35:50;;;;;;;;;;;15.10;99.90;;;;;;5043106;28;20595;-80
2022/04/07 13:38:16;;;;;;;;;;;15.30;99.90;;;;;;5049371;28;20388;-80
2022/04/07 13:40:42;;;;;;;;;;;14.90;99.90;;;;;;5032752;28;19996;-80
2022/04/07 13:43:08;;;;;;;;;;;14.70;99.90;;;;;;5038833;28;19914;-81
2022/04/07 13:45:34;;;;;;;;;;;14.50;99.90;;;;;;5038112;28;19970;-80
2022/04/07 13:47:59;;;;;;;;;;;14.30;99.90;;;;;;5038106;28;19913;-80
2022/04/07 13:50:25;;;;;;;;;;;14.00;99.90;;;;;;5047969;28;19916;-80
2022/04/07 13:52:50;;;;;;;;;;;13.60;99.90;;;;;;5042639;28;19921;-80
2022/04/07 13:55:16;;;;;;;;;;;13.50;99.90;;;;;;5037883;28;19982;-80
2022/04/07 13:57:41;;;;;;;;;;;13.10;99.90;;;;;;5039199;28;20345;-80
2022/04/07 14:00:07;;;;;;;;;;;12.90;99.90;;;;;;5029475;28;19932;-80
2022/04/07 14:02:32;;;;;;;;;;;12.90;99.90;;;;;;5034630;28;20361;-80
2022/04/07 14:04:57;;;;;;;;;;;12.80;99.90;;;;;;5034668;28;20289;-80
2022/04/07 14:07:23;;;;;;;;;;;12.60;99.90;;;;;;5040625;28;19913;-81
2022/04/07 14:09:48;;;;;;;;;;;12.60;99.90;;;;;;5040116;28;19913;-80
2022/04/07 14:12:15;;;;;;;;;;;12.40;99.90;;;;;;5046285;28;19985;-80
2022/04/07 14:14:43;;;;;;;;;;;12.20;99.90;;;;;;5031709;28;19925;-80
2022/04/07 14:17:09;;;;;;;;;;;12.20;99.90;;;;;;5033702;28;19992;-80
2022/04/07 14:19:34;;;;;;;;;;;12.10;99.90;;;;;;5030914;28;20009;-79
2022/04/07 14:22:00;;;;;;;;;;;12.40;99.90;;;;;;5027123;28;19918;-79